sensor_id;sensor_type;location;lat;lon;timestamp;pressure;altitude;pressure_sealevel;temperature;humidity
32735;BME280;19112;51.076;3.706;2023-02-21T00:01:57;102117.88;;;12.01;74.29
32735;BME280;19112;51.076;3.706;2023-02-21T00:04:41;102113.59;;;12.03;74.20
32735;BME280;19112;51.076;3.706;2023-02-21T00:07:27;102021.69;;;11.53;74.27
32735;BME280;19112;51.076;3.706;2023-02-21T00:10:14;102053.69;;;11.80;74.02
32735;BME280;19112;51.076;3.706;2023-02-21T00:12:59;102116.66;;;12.13;74.04
32735;BME280;19112;51.076;3.706;2023-02-21T00:15:44;102092.41;;;12.00;73.70
32735;BME280;19112;51.076;3.706;2023-02-21T00:18:37;102060.16;;;11.87;73.71
32735;BME280;19112;51.076;3.706;2023-02-21T00:21:22;102101.66;;;12.10;73.82
32735;BME280;19112;51.076;3.706;2023-02-21T00:24:07;102074.03;;;11.83;74.05
32735;BME280;19112;51.076;3.706;2023-02-21T00:26:51;102081.44;;;11.73;74.37
32735;BME280;19112;51.076;3.706;2023-02-21T00:29:35;102065.44;;;11.69;74.28
32735;BME280;19112;51.076;3.706;2023-02-21T00:32:20;102086.47;;;11.69;74.56
32735;BME280;19112;51.076;3.706;2023-02-21T00:35:05;102087.03;;;11.81;74.39
32735;BME280;19112;51.076;3.706;2023-02-21T00:37:50;102101.25;;;11.83;74.71
32735;BME280;19112;51.076;3.706;2023-02-21T00:40:35;102062.50;;;11.63;74.75
32735;BME280;19112;51.076;3.706;2023-02-21T00:43:26;102036.13;;;11.43;74.81
32735;BME280;19112;51.076;3.706;2023-02-21T00:46:10;101992.56;;;11.13;75.00
32735;BME280;19112;51.076;3.706;2023-02-21T00:48:55;102032.81;;;11.47;74.96
32735;BME280;19112;51.076;3.706;2023-02-21T00:51:39;102045.59;;;11.58;75.03
32735;BME280;19112;51.076;3.706;2023-02-21T00:54:24;102028.81;;;11.55;74.84
32735;BME280;19112;51.076;3.706;2023-02-21T00:57:09;102062.56;;;11.82;74.63
32735;BME280;19112;51.076;3.706;2023-02-21T00:59:53;102098.41;;;11.98;74.72
32735;BME280;19112;51.076;3.706;2023-02-21T01:02:38;101949.75;;;11.15;74.55
32735;BME280;19112;51.076;3.706;2023-02-21T01:05:22;102070.97;;;11.93;74.84
32735;BME280;19112;51.076;3.706;2023-02-21T01:08:07;102041.59;;;11.66;75.03
32735;BME280;19112;51.076;3.706;2023-02-21T01:10:52;102089.03;;;11.85;75.12
32735;BME280;19112;51.076;3.706;2023-02-21T01:13:36;102010.94;;;11.48;75.25
32735;BME280;19112;51.076;3.706;2023-02-21T01:16:21;102040.31;;;11.75;75.01
32735;BME280;19112;51.076;3.706;2023-02-21T01:19:05;102039.56;;;11.78;74.85
32735;BME280;19112;51.076;3.706;2023-02-21T01:21:50;102018.41;;;11.57;74.61
32735;BME280;19112;51.076;3.706;2023-02-21T01:24:34;101747.00;;;10.15;74.78
32735;BME280;19112;51.076;3.706;2023-02-21T01:27:19;102072.25;;;12.01;74.54
32735;BME280;19112;51.076;3.706;2023-02-21T01:30:04;101909.66;;;11.01;75.03
32735;BME280;19112;51.076;3.706;2023-02-21T01:32:48;101964.63;;;11.33;75.11
32735;BME280;19112;51.076;3.706;2023-02-21T01:35:32;102057.81;;;11.75;75.18
32735;BME280;19112;51.076;3.706;2023-02-21T01:38:17;101848.16;;;10.61;75.10
32735;BME280;19112;51.076;3.706;2023-02-21T01:41:01;101836.97;;;10.47;75.36
32735;BME280;19112;51.076;3.706;2023-02-21T01:44:26;101925.72;;;11.08;75.14
32735;BME280;19112;51.076;3.706;2023-02-21T01:47:12;102075.06;;;11.86;75.38
32735;BME280;19112;51.076;3.706;2023-02-21T01:49:58;102032.72;;;11.64;75.38
32735;BME280;19112;51.076;3.706;2023-02-21T01:52:45;102077.56;;;11.83;75.34
32735;BME280;19112;51.076;3.706;2023-02-21T01:55:30;102075.56;;;11.79;75.57
32735;BME280;19112;51.076;3.706;2023-02-21T01:58:16;102061.34;;;11.75;75.49
32735;BME280;19112;51.076;3.706;2023-02-21T02:01:03;101967.72;;;11.24;75.35
32735;BME280;19112;51.076;3.706;2023-02-21T02:03:48;102002.00;;;11.45;75.54
32735;BME280;19112;51.076;3.706;2023-02-21T02:06:32;102068.63;;;11.81;75.57
32735;BME280;19112;51.076;3.706;2023-02-21T02:09:21;101930.97;;;11.08;75.49
32735;BME280;19112;51.076;3.706;2023-02-21T02:12:34;102077.34;;;11.98;75.39
32735;BME280;19112;51.076;3.706;2023-02-21T02:18:15;101816.84;;;10.47;75.25
32735;BME280;19112;51.076;3.706;2023-02-21T02:21:29;102068.84;;;12.03;75.61
32735;BME280;19112;51.076;3.706;2023-02-21T02:24:33;102072.25;;;12.01;75.28
32735;BME280;19112;51.076;3.706;2023-02-21T02:36:33;102056.00;;;12.10;75.23
32735;BME280;19112;51.076;3.706;2023-02-21T02:39:23;102010.03;;;11.84;75.35
32735;BME280;19112;51.076;3.706;2023-02-21T02:42:10;101961.56;;;11.61;75.36
32735;BME280;19112;51.076;3.706;2023-02-21T02:44:47;102040.72;;;12.02;75.41
32735;BME280;19112;51.076;3.706;2023-02-21T02:47:24;101761.88;;;10.33;75.24
32735;BME280;19112;51.076;3.706;2023-02-21T02:49:53;101915.06;;;11.05;75.57
32735;BME280;19112;51.076;3.706;2023-02-21T02:52:20;101740.81;;;10.31;75.72
32735;BME280;19112;51.076;3.706;2023-02-21T02:55:01;101962.47;;;11.61;75.80
32735;BME280;19112;51.076;3.706;2023-02-21T02:57:30;101947.31;;;11.38;75.95
32735;BME280;19112;51.076;3.706;2023-02-21T03:00:04;101783.19;;;10.57;75.97
32735;BME280;19112;51.076;3.706;2023-02-21T03:06:10;102023.75;;;11.96;75.86
32735;BME280;19112;51.076;3.706;2023-02-21T03:08:55;102022.25;;;12.01;75.48
32735;BME280;19112;51.076;3.706;2023-02-21T03:11:25;102034.97;;;11.92;75.76
32735;BME280;19112;51.076;3.706;2023-02-21T03:14:28;102020.78;;;11.88;76.21
32735;BME280;19112;51.076;3.706;2023-02-21T03:17:01;101979.63;;;11.53;76.73
32735;BME280;19112;51.076;3.706;2023-02-21T03:19:33;101856.69;;;10.92;76.49
32735;BME280;19112;51.076;3.706;2023-02-21T03:22:28;102014.13;;;11.96;76.48
32735;BME280;19112;51.076;3.706;2023-02-21T03:24:57;101991.75;;;11.69;76.54
32735;BME280;19112;51.076;3.706;2023-02-21T03:27:25;101908.44;;;11.31;76.43
32735;BME280;19112;51.076;3.706;2023-02-21T03:29:53;101989.53;;;11.59;76.49
32735;BME280;19112;51.076;3.706;2023-02-21T03:32:52;101979.84;;;11.58;76.67
32735;BME280;19112;51.076;3.706;2023-02-21T03:35:19;102014.97;;;11.77;76.95
32735;BME280;19112;51.076;3.706;2023-02-21T03:37:51;101917.34;;;11.34;76.82
32735;BME280;19112;51.076;3.706;2023-02-21T03:40:23;101510.03;;;9.06;76.16
32735;BME280;19112;51.076;3.706;2023-02-21T03:42:51;101675.56;;;10.03;76.39
32735;BME280;19112;51.076;3.706;2023-02-21T03:45:17;101935.84;;;11.36;76.70
32735;BME280;19112;51.076;3.706;2023-02-21T03:47:43;101865.97;;;11.04;76.73
32735;BME280;19112;51.076;3.706;2023-02-21T03:50:08;101872.81;;;11.00;76.95
32735;BME280;19112;51.076;3.706;2023-02-21T03:52:34;101679.16;;;9.87;76.77
32735;BME280;19112;51.076;3.706;2023-02-21T03:55:00;101967.25;;;11.50;77.29
32735;BME280;19112;51.076;3.706;2023-02-21T03:57:26;102002.56;;;11.75;77.29
32735;BME280;19112;51.076;3.706;2023-02-21T03:59:52;101789.63;;;10.45;76.94
32735;BME280;19112;51.076;3.706;2023-02-21T04:02:18;102011.97;;;11.70;77.41
32735;BME280;19112;51.076;3.706;2023-02-21T04:04:45;101976.47;;;11.42;77.62
32735;BME280;19112;51.076;3.706;2023-02-21T04:07:17;101928.97;;;11.20;77.59
32735;BME280;19112;51.076;3.706;2023-02-21T04:09:43;101799.38;;;10.48;77.61
32735;BME280;19112;51.076;3.706;2023-02-21T04:12:10;101787.84;;;10.44;77.84
32735;BME280;19112;51.076;3.706;2023-02-21T04:14:36;101913.41;;;11.07;78.33
32735;BME280;19112;51.076;3.706;2023-02-21T04:17:02;101918.16;;;11.14;78.32
32735;BME280;19112;51.076;3.706;2023-02-21T04:19:27;101900.28;;;11.07;77.79
32735;BME280;19112;51.076;3.706;2023-02-21T04:21:53;101926.41;;;11.21;77.68
32735;BME280;19112;51.076;3.706;2023-02-21T04:24:19;101769.69;;;10.31;77.82
32735;BME280;19112;51.076;3.706;2023-02-21T04:26:45;101870.50;;;10.88;78.16
32735;BME280;19112;51.076;3.706;2023-02-21T04:29:11;101988.56;;;11.57;77.98
32735;BME280;19112;51.076;3.706;2023-02-21T04:31:37;101997.69;;;11.65;77.94
32735;BME280;19112;51.076;3.706;2023-02-21T04:34:03;101982.75;;;11.64;77.97
32735;BME280;19112;51.076;3.706;2023-02-21T04:36:29;101985.38;;;11.64;78.01
32735;BME280;19112;51.076;3.706;2023-02-21T04:38:55;101793.09;;;10.44;78.22
32735;BME280;19112;51.076;3.706;2023-02-21T04:41:22;101990.97;;;11.52;78.69
32735;BME280;19112;51.076;3.706;2023-02-21T04:43:48;101688.75;;;9.87;78.36
32735;BME280;19112;51.076;3.706;2023-02-21T04:46:16;101917.56;;;11.19;78.50
32735;BME280;19112;51.076;3.706;2023-02-21T04:48:44;101794.28;;;10.51;78.63
32735;BME280;19112;51.076;3.706;2023-02-21T04:51:12;101496.91;;;8.88;78.49
32735;BME280;19112;51.076;3.706;2023-02-21T04:53:38;101864.31;;;11.06;78.44
32735;BME280;19112;51.076;3.706;2023-02-21T04:56:04;101970.66;;;11.67;78.45
32735;BME280;19112;51.076;3.706;2023-02-21T04:58:30;101886.81;;;11.18;78.50
32735;BME280;19112;51.076;3.706;2023-02-21T05:00:56;101968.38;;;11.75;78.14
32735;BME280;19112;51.076;3.706;2023-02-21T05:03:22;101963.94;;;11.74;78.12
32735;BME280;19112;51.076;3.706;2023-02-21T05:05:49;101903.53;;;11.38;78.01
32735;BME280;19112;51.076;3.706;2023-02-21T05:08:15;101808.78;;;10.80;78.17
32735;BME280;19112;51.076;3.706;2023-02-21T05:10:41;101845.19;;;11.08;78.16
32735;BME280;19112;51.076;3.706;2023-02-21T05:13:07;101646.41;;;9.97;77.83
32735;BME280;19112;51.076;3.706;2023-02-21T05:15:33;101979.03;;;11.78;78.06
32735;BME280;19112;51.076;3.706;2023-02-21T05:17:59;101931.56;;;11.38;78.45
32735;BME280;19112;51.076;3.706;2023-02-21T05:20:25;101938.84;;;11.43;78.47
32735;BME280;19112;51.076;3.706;2023-02-21T05:22:51;101904.31;;;11.18;78.46
32735;BME280;19112;51.076;3.706;2023-02-21T05:25:20;101861.41;;;10.99;78.52
32735;BME280;19112;51.076;3.706;2023-02-21T05:27:47;101962.47;;;11.61;78.68
32735;BME280;19112;51.076;3.706;2023-02-21T05:30:15;101714.38;;;10.10;78.77
32735;BME280;19112;51.076;3.706;2023-02-21T05:32:42;101756.78;;;10.36;78.77
32735;BME280;19112;51.076;3.706;2023-02-21T05:35:10;101794.13;;;10.66;79.02
32735;BME280;19112;51.076;3.706;2023-02-21T05:37:36;101885.13;;;11.19;78.47
32735;BME280;19112;51.076;3.706;2023-02-21T05:40:03;101892.38;;;11.24;78.86
32735;BME280;19112;51.076;3.706;2023-02-21T05:42:30;101966.41;;;11.71;78.49
32735;BME280;19112;51.076;3.706;2023-02-21T05:44:56;101808.28;;;10.87;78.17
32735;BME280;19112;51.076;3.706;2023-02-21T05:47:22;101962.97;;;11.72;78.34
32735;BME280;19112;51.076;3.706;2023-02-21T05:49:48;101830.41;;;10.92;78.35
32735;BME280;19112;51.076;3.706;2023-02-21T05:52:15;101964.91;;;11.76;78.31
32735;BME280;19112;51.076;3.706;2023-02-21T05:54:43;101963.16;;;11.76;78.19
32735;BME280;19112;51.076;3.706;2023-02-21T05:57:09;101917.50;;;11.37;77.90
32735;BME280;19112;51.076;3.706;2023-02-21T05:59:36;101961.44;;;11.77;77.88
32735;BME280;19112;51.076;3.706;2023-02-21T06:02:02;101937.47;;;11.51;77.82
32735;BME280;19112;51.076;3.706;2023-02-21T06:04:28;101883.72;;;11.27;78.17
32735;BME280;19112;51.076;3.706;2023-02-21T06:06:54;101963.16;;;11.76;78.11
32735;BME280;19112;51.076;3.706;2023-02-21T06:09:20;101660.56;;;10.01;77.84
32735;BME280;19112;51.076;3.706;2023-02-21T06:11:46;101950.84;;;11.75;78.38
32735;BME280;19112;51.076;3.706;2023-02-21T06:14:19;101912.97;;;11.52;78.18
32735;BME280;19112;51.076;3.706;2023-02-21T06:16:46;101909.38;;;11.50;78.04
32735;BME280;19112;51.076;3.706;2023-02-21T06:19:14;101889.97;;;11.48;78.00
32735;BME280;19112;51.076;3.706;2023-02-21T06:21:41;101858.34;;;11.27;77.79
32735;BME280;19112;51.076;3.706;2023-02-21T06:24:09;101747.31;;;10.57;77.93
32735;BME280;19112;51.076;3.706;2023-02-21T06:26:35;101639.56;;;10.01;78.12
32735;BME280;19112;51.076;3.706;2023-02-21T06:29:04;101941.84;;;11.70;78.29
32735;BME280;19112;51.076;3.706;2023-02-21T06:31:30;101685.81;;;10.16;78.13
32735;BME280;19112;51.076;3.706;2023-02-21T06:33:55;101665.91;;;10.02;78.37
32735;BME280;19112;51.076;3.706;2023-02-21T06:36:24;101896.63;;;11.40;78.47
32735;BME280;19112;51.076;3.706;2023-02-21T06:38:53;101723.34;;;10.49;78.25
32735;BME280;19112;51.076;3.706;2023-02-21T06:41:30;101312.69;;;8.17;77.89
32735;BME280;19112;51.076;3.706;2023-02-21T06:43:58;101820.31;;;11.01;78.04
32735;BME280;19112;51.076;3.706;2023-02-21T06:46:27;101290.78;;;7.97;78.06
32735;BME280;19112;51.076;3.706;2023-02-21T06:48:53;101939.63;;;11.60;78.27
32735;BME280;19112;51.076;3.706;2023-02-21T06:51:19;101949.13;;;11.57;78.30
32735;BME280;19112;51.076;3.706;2023-02-21T06:53:49;101798.22;;;10.79;78.33
32735;BME280;19112;51.076;3.706;2023-02-21T06:56:15;101640.06;;;9.92;77.94
32735;BME280;19112;51.076;3.706;2023-02-21T06:58:41;101977.44;;;11.62;78.23
32735;BME280;19112;51.076;3.706;2023-02-21T07:01:06;101913.16;;;11.38;78.48
32735;BME280;19112;51.076;3.706;2023-02-21T07:03:32;101849.00;;;11.15;78.11
32735;BME280;19112;51.076;3.706;2023-02-21T07:05:58;101958.41;;;11.68;78.28
32735;BME280;19112;51.076;3.706;2023-02-21T07:08:24;101933.22;;;11.55;78.34
32735;BME280;19112;51.076;3.706;2023-02-21T07:10:50;101947.28;;;11.55;78.35
32735;BME280;19112;51.076;3.706;2023-02-21T07:13:16;101620.63;;;9.88;78.13
32735;BME280;19112;51.076;3.706;2023-02-21T07:15:42;101732.16;;;10.52;77.75
32735;BME280;19112;51.076;3.706;2023-02-21T07:18:08;101747.47;;;10.42;77.98
32735;BME280;19112;51.076;3.706;2023-02-21T07:20:34;101939.16;;;11.69;77.82
32735;BME280;19112;51.076;3.706;2023-02-21T07:23:00;101926.69;;;11.65;77.75
32735;BME280;19112;51.076;3.706;2023-02-21T07:25:25;101282.50;;;8.05;77.22
32735;BME280;19112;51.076;3.706;2023-02-21T07:27:51;101584.22;;;9.77;77.35
32735;BME280;19112;51.076;3.706;2023-02-21T07:30:17;101771.13;;;10.80;77.08
32735;BME280;19112;51.076;3.706;2023-02-21T07:32:44;101832.09;;;11.10;77.06
32735;BME280;19112;51.076;3.706;2023-02-21T07:35:10;101950.00;;;11.76;76.87
32735;BME280;19112;51.076;3.706;2023-02-21T07:37:36;101938.53;;;11.74;76.95
32735;BME280;19112;51.076;3.706;2023-02-21T07:40:02;101753.63;;;10.61;76.85
32735;BME280;19112;51.076;3.706;2023-02-21T07:42:28;101919.75;;;11.47;76.60
32735;BME280;19112;51.076;3.706;2023-02-21T07:44:56;101839.72;;;11.04;76.38
32735;BME280;19112;51.076;3.706;2023-02-21T07:47:26;101885.28;;;11.23;76.33
32735;BME280;19112;51.076;3.706;2023-02-21T07:49:53;101541.84;;;9.32;76.29
32735;BME280;19112;51.076;3.706;2023-02-21T07:52:20;101639.00;;;9.88;75.75
32735;BME280;19112;51.076;3.706;2023-02-21T07:54:47;101959.84;;;11.61;75.76
32735;BME280;19112;51.076;3.706;2023-02-21T07:57:15;101671.44;;;10.08;75.80
32735;BME280;19112;51.076;3.706;2023-02-21T07:59:41;101489.16;;;9.08;75.94
32735;BME280;19112;51.076;3.706;2023-02-21T08:02:12;101713.13;;;10.38;76.03
32735;BME280;19112;51.076;3.706;2023-02-21T08:04:39;101957.84;;;11.75;75.92
32735;BME280;19112;51.076;3.706;2023-02-21T08:07:05;101963.25;;;11.78;76.02
32735;BME280;19112;51.076;3.706;2023-02-21T08:09:32;101956.88;;;11.73;76.00
32735;BME280;19112;51.076;3.706;2023-02-21T08:11:58;101962.06;;;11.71;76.32
32735;BME280;19112;51.076;3.706;2023-02-21T08:14:24;101864.88;;;11.18;75.98
32735;BME280;19112;51.076;3.706;2023-02-21T08:16:50;101891.84;;;11.32;75.95
32735;BME280;19112;51.076;3.706;2023-02-21T08:19:16;101880.25;;;11.28;75.90
32735;BME280;19112;51.076;3.706;2023-02-21T08:21:49;101686.53;;;10.30;75.95
32735;BME280;19112;51.076;3.706;2023-02-21T08:24:16;101703.13;;;10.48;75.66
32735;BME280;19112;51.076;3.706;2023-02-21T08:26:43;101934.50;;;11.63;75.72
32735;BME280;19112;51.076;3.706;2023-02-21T08:29:11;101672.44;;;10.28;75.37
32735;BME280;19112;51.076;3.706;2023-02-21T08:31:39;101906.53;;;11.46;75.60
32735;BME280;19112;51.076;3.706;2023-02-21T08:34:06;101857.50;;;11.28;75.52
32735;BME280;19112;51.076;3.706;2023-02-21T08:36:36;101956.84;;;11.91;75.54
32735;BME280;19112;51.076;3.706;2023-02-21T08:39:02;101926.00;;;11.69;75.44
32735;BME280;19112;51.076;3.706;2023-02-21T08:41:42;101775.34;;;10.76;75.11
32735;BME280;19112;51.076;3.706;2023-02-21T08:44:13;101737.19;;;10.47;75.05
32735;BME280;19112;51.076;3.706;2023-02-21T08:46:41;101859.59;;;10.98;75.22
32735;BME280;19112;51.076;3.706;2023-02-21T08:49:07;101757.66;;;10.72;75.28
32735;BME280;19112;51.076;3.706;2023-02-21T08:51:34;101849.44;;;11.24;75.07
32735;BME280;19112;51.076;3.706;2023-02-21T08:54:08;101768.44;;;10.78;74.84
32735;BME280;19112;51.076;3.706;2023-02-21T08:56:34;101963.00;;;11.91;75.27
32735;BME280;19112;51.076;3.706;2023-02-21T08:59:00;101728.59;;;10.69;74.58
32735;BME280;19112;51.076;3.706;2023-02-21T09:01:32;101755.75;;;10.87;74.57
32735;BME280;19112;51.076;3.706;2023-02-21T09:03:59;101687.53;;;10.52;74.69
32735;BME280;19112;51.076;3.706;2023-02-21T09:06:24;101894.66;;;11.73;74.32
32735;BME280;19112;51.076;3.706;2023-02-21T09:08:50;101888.75;;;11.79;74.40
32735;BME280;19112;51.076;3.706;2023-02-21T09:11:16;101877.13;;;11.74;74.16
32735;BME280;19112;51.076;3.706;2023-02-21T09:13:42;101850.44;;;11.66;74.15
32735;BME280;19112;51.076;3.706;2023-02-21T09:16:07;101898.53;;;12.01;73.87
32735;BME280;19112;51.076;3.706;2023-02-21T09:18:33;101964.44;;;12.43;73.48
32735;BME280;19112;51.076;3.706;2023-02-21T09:20:59;101825.78;;;11.63;73.16
32735;BME280;19112;51.076;3.706;2023-02-21T09:23:28;101910.59;;;12.15;72.78
32735;BME280;19112;51.076;3.706;2023-02-21T09:25:55;101882.69;;;11.99;72.61
32735;BME280;19112;51.076;3.706;2023-02-21T09:28:21;101864.97;;;11.95;72.83
32735;BME280;19112;51.076;3.706;2023-02-21T09:30:48;101928.00;;;12.32;72.34
32735;BME280;19112;51.076;3.706;2023-02-21T09:33:15;101660.28;;;10.87;72.18
32735;BME280;19112;51.076;3.706;2023-02-21T09:35:41;101953.78;;;12.61;71.78
32735;BME280;19112;51.076;3.706;2023-02-21T09:38:07;101936.22;;;12.40;71.66
32735;BME280;19112;51.076;3.706;2023-02-21T09:40:43;101953.16;;;12.66;71.25
32735;BME280;19112;51.076;3.706;2023-02-21T09:43:33;101955.41;;;12.57;71.59
32735;BME280;19112;51.076;3.706;2023-02-21T09:46:28;101958.22;;;12.62;71.74
32735;BME280;19112;51.076;3.706;2023-02-21T09:48:57;101768.75;;;11.23;71.09
32735;BME280;19112;51.076;3.706;2023-02-21T09:51:23;101886.78;;;12.33;71.06
32735;BME280;19112;51.076;3.706;2023-02-21T09:53:54;101894.22;;;12.43;71.15
32735;BME280;19112;51.076;3.706;2023-02-21T09:56:29;101707.44;;;11.43;70.96
32735;BME280;19112;51.076;3.706;2023-02-21T09:58:59;101803.31;;;11.90;70.53
32735;BME280;19112;51.076;3.706;2023-02-21T10:02:06;101944.28;;;12.85;70.72
32735;BME280;19112;51.076;3.706;2023-02-21T10:05:03;101905.03;;;12.70;70.69
32735;BME280;19112;51.076;3.706;2023-02-21T10:08:29;101938.63;;;12.97;70.20
32735;BME280;19112;51.076;3.706;2023-02-21T10:17:01;101803.53;;;12.16;70.49
32735;BME280;19112;51.076;3.706;2023-02-21T10:19:40;101622.59;;;11.26;70.15
32735;BME280;19112;51.076;3.706;2023-02-21T10:22:20;101618.47;;;11.33;69.82
32735;BME280;19112;51.076;3.706;2023-02-21T10:24:47;101898.66;;;12.86;69.36
32735;BME280;19112;51.076;3.706;2023-02-21T10:27:18;101764.31;;;12.22;69.65
32735;BME280;19112;51.076;3.706;2023-02-21T10:29:54;101841.59;;;12.66;69.68
32735;BME280;19112;51.076;3.706;2023-02-21T10:32:22;101562.91;;;11.03;69.84
32735;BME280;19112;51.076;3.706;2023-02-21T10:34:51;101749.13;;;12.37;69.36
32735;BME280;19112;51.076;3.706;2023-02-21T10:37:38;101808.47;;;12.72;68.85
32735;BME280;19112;51.076;3.706;2023-02-21T10:43:38;101922.63;;;13.35;68.88
32735;BME280;19112;51.076;3.706;2023-02-21T10:46:26;101922.94;;;13.43;69.25
32735;BME280;19112;51.076;3.706;2023-02-21T10:48:58;101818.97;;;12.93;68.60
32735;BME280;19112;51.076;3.706;2023-02-21T10:51:35;101854.59;;;13.27;68.08
32735;BME280;19112;51.076;3.706;2023-02-21T10:54:23;101917.09;;;13.74;68.02
32735;BME280;19112;51.076;3.706;2023-02-21T10:56:52;101654.81;;;12.04;67.86
32735;BME280;19112;51.076;3.706;2023-02-21T10:59:31;101772.34;;;12.68;67.56
32735;BME280;19112;51.076;3.706;2023-02-21T11:01:58;101690.06;;;12.30;67.24
32735;BME280;19112;51.076;3.706;2023-02-21T11:04:32;101880.91;;;13.48;67.10
32735;BME280;19112;51.076;3.706;2023-02-21T11:07:09;101709.75;;;12.63;66.99
32735;BME280;19112;51.076;3.706;2023-02-21T11:09:46;101915.66;;;13.84;66.65
32735;BME280;19112;51.076;3.706;2023-02-21T11:15:04;101781.75;;;13.08;66.15
32735;BME280;19112;51.076;3.706;2023-02-21T11:17:31;101850.44;;;13.33;65.74
32735;BME280;19112;51.076;3.706;2023-02-21T11:20:19;101905.00;;;13.81;66.11
32735;BME280;19112;51.076;3.706;2023-02-21T11:22:47;101616.44;;;12.33;65.30
32735;BME280;19112;51.076;3.706;2023-02-21T11:27:44;101752.69;;;13.29;63.70
32735;BME280;19112;51.076;3.706;2023-02-21T11:30:22;101774.56;;;13.50;63.59
32735;BME280;19112;51.076;3.706;2023-02-21T11:32:55;101770.69;;;13.65;63.79
32735;BME280;19112;51.076;3.706;2023-02-21T11:35:45;101905.88;;;14.29;63.26
32735;BME280;19112;51.076;3.706;2023-02-21T11:38:36;101859.19;;;14.04;63.40
32735;BME280;19112;51.076;3.706;2023-02-21T11:43:47;101835.38;;;13.77;63.50
32735;BME280;19112;51.076;3.706;2023-02-21T11:52:09;101845.41;;;13.87;63.81
32735;BME280;19112;51.076;3.706;2023-02-21T11:54:38;101598.53;;;12.47;63.15
32735;BME280;19112;51.076;3.706;2023-02-21T12:09:11;101602.69;;;12.65;63.34
32735;BME280;19112;51.076;3.706;2023-02-21T12:14:51;101855.19;;;14.41;63.12
32735;BME280;19112;51.076;3.706;2023-02-21T12:18:15;101854.88;;;14.57;62.70
32735;BME280;19112;51.076;3.706;2023-02-21T12:21:07;101853.41;;;14.65;62.35
32735;BME280;19112;51.076;3.706;2023-02-21T12:24:13;101739.94;;;14.18;62.08
32735;BME280;19112;51.076;3.706;2023-02-21T12:35:31;101824.69;;;14.76;61.41
32735;BME280;19112;51.076;3.706;2023-02-21T12:41:30;101814.44;;;14.87;60.97
32735;BME280;19112;51.076;3.706;2023-02-21T12:44:23;101819.81;;;14.90;60.95
32735;BME280;19112;51.076;3.706;2023-02-21T12:50:01;101772.88;;;14.54;60.80
32735;BME280;19112;51.076;3.706;2023-02-21T12:52:42;101795.50;;;14.73;60.91
32735;BME280;19112;51.076;3.706;2023-02-21T12:58:08;101706.44;;;14.16;61.22
32735;BME280;19112;51.076;3.706;2023-02-21T13:03:39;101795.16;;;14.91;60.28
32735;BME280;19112;51.076;3.706;2023-02-21T13:06:33;101792.72;;;14.97;60.01
32735;BME280;19112;51.076;3.706;2023-02-21T13:09:42;101791.75;;;14.95;59.95
32735;BME280;19112;51.076;3.706;2023-02-21T13:12:24;101578.47;;;13.77;59.96
32735;BME280;19112;51.076;3.706;2023-02-21T13:14:54;101755.28;;;14.83;59.99
32735;BME280;19112;51.076;3.706;2023-02-21T13:17:22;101743.69;;;14.80;59.77
32735;BME280;19112;51.076;3.706;2023-02-21T13:20:03;101778.84;;;15.06;59.42
32735;BME280;19112;51.076;3.706;2023-02-21T13:28:55;101675.84;;;14.50;59.75
32735;BME280;19112;51.076;3.706;2023-02-21T13:31:34;101730.78;;;14.90;59.66
32735;BME280;19112;51.076;3.706;2023-02-21T13:34:09;101698.75;;;14.80;59.92
32735;BME280;19112;51.076;3.706;2023-02-21T13:36:44;101675.53;;;14.70;59.67
32735;BME280;19112;51.076;3.706;2023-02-21T13:39:19;101710.75;;;14.97;59.68
32735;BME280;19112;51.076;3.706;2023-02-21T13:41:53;101559.69;;;14.25;59.15
32735;BME280;19112;51.076;3.706;2023-02-21T13:44:43;101656.63;;;14.86;59.17
32735;BME280;19112;51.076;3.706;2023-02-21T13:47:17;101578.09;;;14.50;58.79
32735;BME280;19112;51.076;3.706;2023-02-21T13:49:54;101492.34;;;14.10;58.48
32735;BME280;19112;51.076;3.706;2023-02-21T13:57:39;101622.94;;;14.79;57.83
32735;BME280;19112;51.076;3.706;2023-02-21T14:13:47;101734.19;;;15.16;58.40
32735;BME280;19112;51.076;3.706;2023-02-21T14:19:45;101527.75;;;13.87;59.05
32735;BME280;19112;51.076;3.706;2023-02-21T14:22:28;101724.03;;;15.00;59.32
32735;BME280;19112;51.076;3.706;2023-02-21T14:25:22;101646.13;;;14.57;59.52
32735;BME280;19112;51.076;3.706;2023-02-21T14:27:50;101680.94;;;14.73;59.38
32735;BME280;19112;51.076;3.706;2023-02-21T14:30:29;101646.28;;;14.63;59.13
32735;BME280;19112;51.076;3.706;2023-02-21T14:33:28;101701.13;;;15.01;58.51
32735;BME280;19112;51.076;3.706;2023-02-21T14:36:01;101700.91;;;14.93;58.72
32735;BME280;19112;51.076;3.706;2023-02-21T14:38:36;101668.53;;;14.70;58.85
32735;BME280;19112;51.076;3.706;2023-02-21T14:44:29;101695.69;;;14.96;58.90
32735;BME280;19112;51.076;3.706;2023-02-21T15:02:53;101556.72;;;14.14;59.38
32735;BME280;19112;51.076;3.706;2023-02-21T15:05:44;101385.44;;;13.07;59.66
32735;BME280;19112;51.076;3.706;2023-02-21T15:08:23;101583.28;;;14.19;60.16
32735;BME280;19112;51.076;3.706;2023-02-21T15:10:58;101675.28;;;14.60;60.31
32735;BME280;19112;51.076;3.706;2023-02-21T15:13:33;101578.38;;;14.02;60.45
32735;BME280;19112;51.076;3.706;2023-02-21T15:16:05;101643.53;;;14.32;60.78
32735;BME280;19112;51.076;3.706;2023-02-21T15:18:40;101654.97;;;14.31;61.04
32735;BME280;19112;51.076;3.706;2023-02-21T15:21:17;101520.81;;;13.62;61.14
32735;BME280;19112;51.076;3.706;2023-02-21T15:23:59;101503.88;;;13.55;61.05
32735;BME280;19112;51.076;3.706;2023-02-21T15:26:30;101547.88;;;13.83;61.02
32735;BME280;19112;51.076;3.706;2023-02-21T15:31:37;101682.81;;;14.48;61.46
32735;BME280;19112;51.076;3.706;2023-02-21T15:34:04;101674.88;;;14.48;61.62